Terminal Aerodrome Forecast
Issued by NWS Detroit/Pontiac, MI

Home | Current Version | Previous Version | Text Only | Print | Product List | Glossary On
Versions: 1 2 3 4 5 6 7 8 9 10 11 12 13 14 15 16 17 18 19
703
FTUS43 KDTX 291720
TAFFNT
TAF
KFNT 291720Z 2918/3018 05010KT P6SM FEW035 BKN150
     FM300100 07008KT P6SM OVC100
     FM301500 08013G22KT P6SM -RA SCT050 OVC070
     FM301700 08014G23KT 4SM -RA SCT028 OVC045=

USA.gov is the U.S. government's official web portal to all federal, state and local government web resources and services.